createdAt,value
2022-11-05T00:00:31.871Z,98447.59
2022-11-05T00:04:12.296Z,98440.06
2022-11-05T00:07:39.216Z,98437.41
2022-11-05T00:10:41.400Z,98445.38
2022-11-05T00:14:02.135Z,98441.25
2022-11-05T00:17:04.251Z,98445.06
2022-11-05T00:20:08.259Z,98451.63
2022-11-05T00:23:29.258Z,98456.72
2022-11-05T00:26:31.400Z,98450.53
2022-11-05T00:29:33.854Z,98452.81
2022-11-05T00:32:36.021Z,98453.25
2022-11-05T00:35:38.244Z,98456.59
2022-11-05T00:38:40.396Z,98452.56
2022-11-05T00:41:42.529Z,98448.88
2022-11-05T00:45:03.070Z,98456.16
2022-11-05T00:48:24.305Z,98448.81
2022-11-05T00:51:26.467Z,98453.53
2022-11-05T00:54:28.628Z,98448.28
2022-11-05T00:57:30.726Z,98450.19
2022-11-05T01:00:34.608Z,98453.91
2022-11-05T01:03:37.888Z,98458.22
2022-11-05T01:06:40.024Z,98458.47
2022-11-05T01:09:42.187Z,98464.59
2022-11-05T01:12:44.361Z,98464.44
2022-11-05T01:15:47.111Z,98472.66
2022-11-05T01:18:49.298Z,98468.44
2022-11-05T01:21:51.509Z,98451.81
2022-11-05T01:24:53.665Z,98449.19
2022-11-05T01:27:56.014Z,98448.38
2022-11-05T01:30:58.256Z,98449.00
2022-11-05T01:34:01.112Z,98451.09
2022-11-05T01:37:03.332Z,98438.47
2022-11-05T01:40:06.819Z,98432.16
2022-11-05T01:43:18.427Z,98435.28
2022-11-05T01:46:28.099Z,98442.41
2022-11-05T01:49:32.279Z,98443.25
2022-11-05T01:52:35.441Z,98439.97
2022-11-05T01:55:42.005Z,98441.22
2022-11-05T01:58:47.043Z,98449.13
2022-11-05T02:01:49.415Z,98454.84
2022-11-05T02:05:00.796Z,98462.94
2022-11-05T02:08:02.925Z,98457.66
2022-11-05T02:11:05.703Z,98466.84
2022-11-05T02:14:07.917Z,98465.66
2022-11-05T02:17:12.959Z,98456.28
2022-11-05T02:20:34.602Z,98452.84
2022-11-05T02:23:50.851Z,98463.66
2022-11-05T02:27:16.564Z,98475.44
2022-11-05T02:30:37.466Z,98476.66
2022-11-05T02:33:56.986Z,98479.31
2022-11-05T02:37:30.288Z,98473.81
2022-11-05T02:40:55.563Z,98472.81
2022-11-05T02:44:08.271Z,98472.81
2022-11-05T02:47:28.840Z,98480.72
2022-11-05T02:50:37.847Z,98484.75
2022-11-05T02:53:42.846Z,98490.06
2022-11-05T02:56:47.552Z,98491.69
2022-11-05T02:59:49.678Z,98484.19
2022-11-05T03:02:51.953Z,98476.47
2022-11-05T03:06:03.156Z,98473.41
2022-11-05T03:09:11.004Z,98473.38
2022-11-05T03:12:31.486Z,98479.09
2022-11-05T03:15:50.951Z,98479.28
2022-11-05T03:19:28.531Z,98476.84
2022-11-05T03:22:35.204Z,98473.38
2022-11-05T03:25:40.649Z,98482.31
2022-11-05T03:28:45.525Z,98489.00
2022-11-05T03:31:49.439Z,98495.66
2022-11-05T03:35:03.101Z,98505.44
2022-11-05T03:38:13.692Z,98504.28
2022-11-05T03:41:16.461Z,98499.84
2022-11-05T03:44:29.576Z,98495.34
2022-11-05T03:47:35.430Z,98505.56
2022-11-05T03:51:00.521Z,98507.56
2022-11-05T03:54:05.186Z,98513.69
2022-11-05T03:57:15.316Z,98528.13
2022-11-05T04:00:17.681Z,98521.19
2022-11-05T04:03:20.083Z,98518.53
2022-11-05T04:06:40.720Z,98522.22
2022-11-05T04:10:01.570Z,98534.00
2022-11-05T04:13:22.115Z,98537.22
2022-11-05T04:16:42.900Z,98533.34
2022-11-05T04:20:04.197Z,98529.69
2022-11-05T04:23:26.125Z,98516.91
2022-11-05T04:26:28.312Z,98522.63
2022-11-05T04:29:48.676Z,98514.06
2022-11-05T04:33:08.962Z,98513.88
2022-11-05T04:36:11.278Z,98509.41
2022-11-05T04:39:13.427Z,98507.37
2022-11-05T04:42:15.647Z,98496.81
2022-11-05T04:45:17.802Z,98503.31
2022-11-05T04:48:19.921Z,98504.75
2022-11-05T04:51:22.096Z,98504.56
2022-11-05T04:54:24.244Z,98502.94
2022-11-05T04:57:26.374Z,98503.97
2022-11-05T05:00:28.606Z,98502.34
2022-11-05T05:03:30.761Z,98504.38
2022-11-05T05:06:32.914Z,98511.28
2022-11-05T05:09:35.070Z,98515.13
2022-11-05T05:12:37.252Z,98519.00
2022-11-05T05:15:39.422Z,98517.38
2022-11-05T05:18:46.085Z,98516.97
2022-11-05T05:21:48.633Z,98521.03
2022-11-05T05:24:52.886Z,98527.72
2022-11-05T05:27:59.839Z,98533.84
2022-11-05T05:31:02.345Z,98533.66
2022-11-05T05:34:05.872Z,98529.78
2022-11-05T05:37:08.041Z,98528.75
2022-11-05T05:40:10.933Z,98527.12
2022-11-05T05:43:13.372Z,98523.69
2022-11-05T05:46:17.164Z,98530.19
2022-11-05T05:49:19.325Z,98533.25
2022-11-05T05:52:21.474Z,98543.81
2022-11-05T05:55:23.650Z,98548.28
2022-11-05T05:58:27.065Z,98539.97
2022-11-05T06:01:29.273Z,98549.72
2022-11-05T06:04:31.506Z,98543.22
2022-11-05T06:07:37.297Z,98553.19
2022-11-05T06:10:40.315Z,98572.09
2022-11-05T06:13:42.553Z,98581.84
2022-11-05T06:16:44.760Z,98590.59
2022-11-05T06:19:47.830Z,98594.88
2022-11-05T06:22:59.571Z,98606.87
2022-11-05T06:26:10.963Z,98610.12
2022-11-05T06:29:13.160Z,98606.28
2022-11-05T06:32:15.720Z,98615.22
2022-11-05T06:35:17.887Z,98614.63
2022-11-05T06:38:20.513Z,98615.66
2022-11-05T06:41:22.676Z,98614.00
2022-11-05T06:44:24.821Z,98617.66
2022-11-05T06:47:27.114Z,98616.84
2022-11-05T06:50:29.525Z,98621.31
2022-11-05T06:53:31.858Z,98627.22
2022-11-05T06:56:34.026Z,98619.28
2022-11-05T06:59:37.144Z,98627.63
2022-11-05T07:02:39.288Z,98624.78
2022-11-05T07:05:47.854Z,98625.59
2022-11-05T07:08:50.024Z,98633.94
2022-11-05T07:11:52.175Z,98628.84
2022-11-05T07:14:54.291Z,98629.47
2022-11-05T07:18:00.497Z,98631.28
2022-11-05T07:21:02.719Z,98620.91
2022-11-05T07:24:05.308Z,98626.81
2022-11-05T07:27:07.460Z,98623.75
2022-11-05T07:30:10.650Z,98625.59
2022-11-05T07:33:14.162Z,98621.31
2022-11-05T07:36:16.513Z,98618.06
2022-11-05T07:39:20.997Z,98623.34
2022-11-05T07:42:23.147Z,98612.53
2022-11-05T07:45:26.236Z,98620.47
2022-11-05T07:48:28.375Z,98619.47
2022-11-05T07:51:30.553Z,98612.75
2022-11-05T07:54:32.718Z,98623.94
2022-11-05T07:57:42.335Z,98618.84
2022-11-05T08:00:44.714Z,98623.31
2022-11-05T08:03:47.064Z,98624.94
2022-11-05T08:06:49.291Z,98624.75
2022-11-05T08:09:51.589Z,98631.09
2022-11-05T08:12:54.597Z,98626.00
2022-11-05T08:15:57.637Z,98628.03
2022-11-05T08:18:59.785Z,98623.94
2022-11-05T08:22:01.924Z,98624.38
2022-11-05T08:25:06.914Z,98627.00
2022-11-05T08:28:11.783Z,98630.44
2022-11-05T08:31:15.571Z,98632.72
2022-11-05T08:34:17.867Z,98625.78
2022-11-05T08:37:20.015Z,98618.66
2022-11-05T08:40:22.163Z,98625.19
2022-11-05T08:43:24.759Z,98624.97
2022-11-05T08:46:26.988Z,98629.66
2022-11-05T08:49:29.133Z,98627.19
2022-11-05T08:52:31.299Z,98631.88
2022-11-05T08:55:33.902Z,98642.25
2022-11-05T08:58:36.173Z,98637.19
2022-11-05T09:01:38.475Z,98636.09
2022-11-05T09:04:40.923Z,98628.94
2022-11-05T09:07:43.069Z,98627.09
2022-11-05T09:10:46.726Z,98636.28
2022-11-05T09:13:48.893Z,98645.56
2022-11-05T09:16:51.029Z,98653.66
2022-11-05T09:19:53.137Z,98653.47
2022-11-05T09:22:55.256Z,98663.69
2022-11-05T09:25:57.418Z,98672.63
2022-11-05T09:28:59.525Z,98670.38
2022-11-05T09:32:01.676Z,98675.91
2022-11-05T09:35:04.266Z,98676.72
2022-11-05T09:38:07.332Z,98675.50
2022-11-05T09:41:31.281Z,98678.88
2022-11-05T09:44:42.088Z,98674.59
2022-11-05T09:47:50.083Z,98674.81
2022-11-05T09:50:53.140Z,98681.53
2022-11-05T09:53:57.480Z,98685.06
2022-11-05T09:57:01.918Z,98677.25
2022-11-05T10:00:07.111Z,98674.34
2022-11-05T10:03:15.873Z,98677.41
2022-11-05T10:06:22.032Z,98674.78
2022-11-05T10:09:27.791Z,98669.31
2022-11-05T10:12:35.947Z,98674.16
2022-11-05T10:15:43.392Z,98673.69
2022-11-05T10:18:49.059Z,98677.03
2022-11-05T10:22:11.486Z,98680.44
2022-11-05T10:25:21.856Z,98676.94
2022-11-05T10:28:26.435Z,98666.56
2022-11-05T10:31:35.301Z,98666.34
2022-11-05T10:34:39.335Z,98658.66
2022-11-05T10:37:41.513Z,98659.87
2022-11-05T10:40:55.406Z,98657.81
2022-11-05T10:44:34.210Z,98652.84
2022-11-05T10:48:01.002Z,98653.09
2022-11-05T10:51:03.272Z,98661.34
2022-11-05T10:54:19.445Z,98666.91
2022-11-05T10:57:37.089Z,98667.47
2022-11-05T11:00:39.997Z,98674.72
2022-11-05T11:03:51.542Z,98679.31
2022-11-05T11:06:54.848Z,98672.09
2022-11-05T11:09:56.883Z,98678.50
2022-11-05T11:12:59.207Z,98681.00
2022-11-05T11:16:16.603Z,98687.44
2022-11-05T11:19:26.177Z,98687.06
2022-11-05T11:22:28.363Z,98695.53
2022-11-05T11:26:09.136Z,98695.41
2022-11-05T11:29:26.217Z,98697.63
2022-11-05T11:32:34.393Z,98690.75
2022-11-05T11:35:38.160Z,98690.13
2022-11-05T11:38:40.833Z,98695.09
2022-11-05T11:41:44.199Z,98685.75
2022-11-05T11:44:47.574Z,98683.37
2022-11-05T11:47:50.863Z,98687.22
2022-11-05T11:50:53.218Z,98702.84
2022-11-05T11:53:59.869Z,98697.75
2022-11-05T11:57:02.595Z,98705.13
2022-11-05T12:00:09.640Z,98695.72
2022-11-05T12:03:21.655Z,98698.69
2022-11-05T12:06:23.798Z,98696.75
2022-11-05T12:09:46.414Z,98698.34
2022-11-05T12:13:21.042Z,98699.97
2022-11-05T12:17:00.978Z,98692.53
2022-11-05T12:20:32.634Z,98696.91
2022-11-05T12:23:53.009Z,98708.13
2022-11-05T12:27:23.486Z,98705.00
2022-11-05T12:30:25.880Z,98712.22
2022-11-05T12:33:44.783Z,98705.28
2022-11-05T12:36:58.867Z,98713.13
2022-11-05T12:40:22.472Z,98713.44
2022-11-05T12:43:56.628Z,98716.81
2022-11-05T12:47:16.812Z,98722.44
2022-11-05T12:50:33.764Z,98723.31
2022-11-05T12:53:41.892Z,98719.03
2022-11-05T12:56:58.847Z,98723.41
2022-11-05T13:00:18.942Z,98724.06
2022-11-05T13:03:44.062Z,98726.38
2022-11-05T13:06:49.160Z,98743.13
2022-11-05T13:09:58.872Z,98739.88
2022-11-05T13:13:50.516Z,98744.91
2022-11-05T13:17:00.391Z,98751.09
2022-11-05T13:20:24.454Z,98742.38
2022-11-05T13:23:38.161Z,98752.94
2022-11-05T13:26:51.341Z,98758.25
2022-11-05T13:29:58.283Z,98754.28
2022-11-05T13:33:34.761Z,98755.47
2022-11-05T13:37:18.739Z,98746.06
2022-11-05T13:40:30.858Z,98751.03
2022-11-05T13:43:41.932Z,98755.31
2022-11-05T13:46:57.729Z,98746.06
2022-11-05T13:50:18.252Z,98757.16
2022-11-05T13:53:26.199Z,98759.47
2022-11-05T13:56:45.280Z,98765.87
2022-11-05T13:59:53.900Z,98770.91
2022-11-05T14:02:59.824Z,98774.75
2022-11-05T14:06:08.433Z,98787.97
2022-11-05T14:09:12.340Z,98778.22
2022-11-05T14:12:21.204Z,98781.63
2022-11-05T14:15:30.552Z,98782.69
2022-11-05T14:18:46.531Z,98785.12
2022-11-05T14:21:49.601Z,98788.06
2022-11-05T14:24:51.928Z,98794.06
2022-11-05T14:27:54.142Z,98799.59
2022-11-05T14:30:56.345Z,98806.25
2022-11-05T14:34:10.694Z,98799.66
2022-11-05T14:37:16.159Z,98802.53
2022-11-05T14:40:21.424Z,98801.75
2022-11-05T14:43:25.224Z,98814.81
2022-11-05T14:46:41.429Z,98824.03
2022-11-05T14:49:54.030Z,98824.03
2022-11-05T14:52:58.276Z,98820.56
2022-11-05T14:56:08.974Z,98818.09
2022-11-05T14:59:51.756Z,98818.56
2022-11-05T15:03:02.369Z,98819.97
2022-11-05T15:06:20.016Z,98833.84
2022-11-05T15:09:29.432Z,98832.66
2022-11-05T15:12:54.471Z,98825.94
2022-11-05T15:15:56.774Z,98832.59
2022-11-05T15:19:00.134Z,98828.81
2022-11-05T15:22:05.823Z,98834.06
2022-11-05T15:25:19.914Z,98835.00
2022-11-05T15:28:37.864Z,98838.69
2022-11-05T15:31:45.308Z,98842.00
2022-11-05T15:34:55.338Z,98842.81
2022-11-05T15:38:02.158Z,98844.28
2022-11-05T15:41:07.027Z,98843.03
2022-11-05T15:44:24.964Z,98851.50
2022-11-05T15:47:30.101Z,98848.41
2022-11-05T15:50:32.269Z,98864.56
2022-11-05T15:54:01.718Z,98863.13
2022-11-05T15:57:02.054Z,98861.34
2022-11-05T16:00:06.971Z,98863.59
2022-11-05T16:03:29.540Z,98864.00
2022-11-05T16:06:37.741Z,98872.16
2022-11-05T16:09:44.446Z,98879.78
2022-11-05T16:12:47.175Z,98879.22
2022-11-05T16:15:54.802Z,98879.84
2022-11-05T16:18:57.378Z,98879.03
2022-11-05T16:22:02.733Z,98878.22
2022-11-05T16:25:41.715Z,98884.97
2022-11-05T16:28:50.300Z,98893.31
2022-11-05T16:31:54.341Z,98903.50
2022-11-05T16:34:59.273Z,98892.12
2022-11-05T16:38:02.165Z,98901.13
2022-11-05T16:41:04.377Z,98901.94
2022-11-05T16:44:06.563Z,98903.75
2022-11-05T16:47:08.807Z,98905.22
2022-11-05T16:50:31.926Z,98911.37
2022-11-05T16:53:34.325Z,98916.06
2022-11-05T16:56:36.979Z,98930.78
2022-11-05T16:59:39.199Z,98922.00
2022-11-05T17:02:41.870Z,98936.47
2022-11-05T17:05:44.764Z,98932.00
2022-11-05T17:08:47.869Z,98938.53
2022-11-05T17:11:50.372Z,98938.75
2022-11-05T17:14:53.986Z,98945.03
2022-11-05T17:17:57.359Z,98943.63
2022-11-05T17:20:59.741Z,98942.41
2022-11-05T17:24:02.445Z,98945.66
2022-11-05T17:27:05.090Z,98942.81
2022-11-05T17:30:09.274Z,98944.22
2022-11-05T17:33:12.278Z,98965.37
2022-11-05T17:36:15.940Z,98966.19
2022-11-05T17:39:18.794Z,98961.97
2022-11-05T17:42:21.161Z,98960.31
2022-11-05T17:45:23.861Z,98963.78
2022-11-05T17:48:26.197Z,98968.28
2022-11-05T17:51:28.808Z,98971.69
2022-11-05T17:54:31.148Z,98986.56
2022-11-05T17:57:33.492Z,98983.50
2022-11-05T18:00:36.000Z,98990.44
2022-11-05T18:03:38.142Z,98986.00
2022-11-05T18:06:40.993Z,98985.97
2022-11-05T18:09:43.302Z,98986.38
2022-11-05T18:12:46.192Z,98987.19
2022-11-05T18:15:52.368Z,98982.72
2022-11-05T18:18:54.590Z,98994.94
2022-11-05T18:21:56.970Z,98993.69
2022-11-05T18:24:59.748Z,98994.50
2022-11-05T18:28:03.094Z,99002.28
2022-11-05T18:31:08.367Z,99008.19
2022-11-05T18:34:10.857Z,99003.88
2022-11-05T18:37:13.600Z,99014.47
2022-11-05T18:40:15.999Z,99014.88
2022-11-05T18:43:18.371Z,99017.94
2022-11-05T18:46:43.517Z,99016.09
2022-11-05T18:49:42.931Z,99024.03
2022-11-05T18:52:45.284Z,99032.81
2022-11-05T18:55:47.789Z,99027.09
2022-11-05T18:58:50.589Z,99031.56
2022-11-05T19:01:53.306Z,99031.97
2022-11-05T19:05:26.819Z,99039.72
2022-11-05T19:08:18.098Z,99046.63
2022-11-05T19:11:22.567Z,99046.84
2022-11-05T19:14:24.993Z,99053.78
2022-11-05T19:17:31.623Z,99061.47
2022-11-05T19:20:37.753Z,99064.37
2022-11-05T19:23:40.727Z,99073.13
2022-11-05T19:26:45.308Z,99081.69
2022-11-05T19:29:49.696Z,99073.88
2022-11-05T19:32:52.128Z,99080.81
2022-11-05T19:35:54.848Z,99089.84
2022-11-05T19:39:00.329Z,99095.53
2022-11-05T19:42:03.888Z,99090.41
2022-11-05T19:45:30.109Z,99092.19
2022-11-05T19:48:29.482Z,99100.34
2022-11-05T19:51:32.816Z,99098.72
2022-11-05T19:54:36.052Z,99101.53
2022-11-05T19:57:38.550Z,99106.03
2022-11-05T20:00:40.926Z,99115.59
2022-11-05T20:03:43.710Z,99113.16
2022-11-05T20:06:46.171Z,99118.88
2022-11-05T20:09:48.758Z,99116.22
2022-11-05T20:12:51.528Z,99129.47
2022-11-05T20:15:53.996Z,99126.44
2022-11-05T20:18:57.229Z,99134.97
2022-11-05T20:22:00.742Z,99135.97
2022-11-05T20:25:03.194Z,99140.00
2022-11-05T20:28:05.884Z,99139.63
2022-11-05T20:31:11.278Z,99133.13
2022-11-05T20:34:13.754Z,99146.75
2022-11-05T20:37:16.117Z,99143.28
2022-11-05T20:40:18.616Z,99160.34
2022-11-05T20:43:23.740Z,99157.91
2022-11-05T20:46:29.997Z,99153.28
2022-11-05T20:49:32.305Z,99160.81
2022-11-05T20:52:34.605Z,99158.53
2022-11-05T20:55:45.676Z,99160.81
2022-11-05T20:58:48.736Z,99161.63
2022-11-05T21:01:53.444Z,99163.66
2022-11-05T21:04:55.940Z,99166.66
2022-11-05T21:07:58.296Z,99173.03
2022-11-05T21:11:00.931Z,99171.22
2022-11-05T21:14:03.792Z,99170.19
2022-11-05T21:17:06.965Z,99172.78
2022-11-05T21:20:09.734Z,99176.94
2022-11-05T21:23:12.256Z,99179.97
2022-11-05T21:26:16.766Z,99186.09
2022-11-05T21:29:19.350Z,99177.13
2022-11-05T21:32:21.668Z,99185.06
2022-11-05T21:35:24.064Z,99182.81
2022-11-05T21:38:26.442Z,99186.09
2022-11-05T21:41:28.997Z,99188.94
2022-11-05T21:44:31.176Z,99188.72
2022-11-05T21:47:33.445Z,99185.06
2022-11-05T21:50:56.701Z,99186.66
2022-11-05T21:54:17.515Z,99187.09
2022-11-05T21:57:38.693Z,99191.19
2022-11-05T22:00:40.954Z,99197.88
2022-11-05T22:03:43.396Z,99190.56
2022-11-05T22:06:45.581Z,99197.69
2022-11-05T22:09:48.194Z,99197.06
2022-11-05T22:12:50.456Z,99193.22
2022-11-05T22:15:56.495Z,99192.41
2022-11-05T22:18:59.107Z,99192.25
2022-11-05T22:22:01.579Z,99199.31
2022-11-05T22:25:04.422Z,99196.91
2022-11-05T22:28:06.815Z,99199.72
2022-11-05T22:31:16.229Z,99193.00
2022-11-05T22:34:18.632Z,99190.94
2022-11-05T22:37:20.843Z,99183.63
2022-11-05T22:40:24.180Z,99195.22
2022-11-05T22:43:26.495Z,99189.94
2022-11-05T22:46:28.799Z,99188.47
2022-11-05T22:49:31.006Z,99188.66
2022-11-05T22:52:33.156Z,99195.84
2022-11-05T22:55:39.595Z,99196.25
2022-11-05T22:58:42.010Z,99198.25
2022-11-05T23:01:45.719Z,99200.34
2022-11-05T23:04:49.501Z,99207.47
2022-11-05T23:08:10.208Z,99200.87
2022-11-05T23:11:43.622Z,99198.25
2022-11-05T23:14:45.795Z,99207.28
2022-11-05T23:18:06.490Z,99204.94
2022-11-05T23:21:27.340Z,99204.12
2022-11-05T23:24:29.480Z,99208.22
2022-11-05T23:27:33.833Z,99211.88
2022-11-05T23:31:00.960Z,99213.69
2022-11-05T23:34:03.145Z,99217.97
2022-11-05T23:37:24.167Z,99221.84
2022-11-05T23:40:28.978Z,99224.09
2022-11-05T23:43:49.791Z,99225.69
2022-11-05T23:47:10.685Z,99230.78
2022-11-05T23:50:12.842Z,99232.84
2022-11-05T23:53:15.272Z,99230.59
2022-11-05T23:56:17.633Z,99230.41
2022-11-05T23:59:19.888Z,99232.41
